sensor_id;sensor_type;location;lat;lon;timestamp;P1;durP1;ratioP1;P2;durP2;ratioP2
25497;SDS011;13406;53.380;7.226;2023-01-19T00:00:40;6.80;;;5.93;;
25497;SDS011;13406;53.380;7.226;2023-01-19T00:03:05;8.30;;;6.10;;
25497;SDS011;13406;53.380;7.226;2023-01-19T00:05:30;7.57;;;6.10;;
25497;SDS011;13406;53.380;7.226;2023-01-19T00:08:00;7.53;;;6.83;;
25497;SDS011;13406;53.380;7.226;2023-01-19T00:10:38;10.10;;;5.70;;
25497;SDS011;13406;53.380;7.226;2023-01-19T00:13:04;10.30;;;6.50;;
25497;SDS011;13406;53.380;7.226;2023-01-19T00:15:29;9.43;;;6.67;;
25497;SDS011;13406;53.380;7.226;2023-01-19T00:17:54;6.50;;;5.90;;
25497;SDS011;13406;53.380;7.226;2023-01-19T00:20:22;7.33;;;6.43;;
25497;SDS011;13406;53.380;7.226;2023-01-19T00:22:47;7.50;;;6.23;;
25497;SDS011;13406;53.380;7.226;2023-01-19T00:25:15;9.83;;;6.30;;
25497;SDS011;13406;53.380;7.226;2023-01-19T00:27:40;9.93;;;7.07;;
25497;SDS011;13406;53.380;7.226;2023-01-19T00:30:05;8.00;;;6.23;;
25497;SDS011;13406;53.380;7.226;2023-01-19T00:32:31;8.50;;;6.40;;
25497;SDS011;13406;53.380;7.226;2023-01-19T00:34:56;6.73;;;6.07;;
25497;SDS011;13406;53.380;7.226;2023-01-19T00:37:21;6.90;;;5.17;;
25497;SDS011;13406;53.380;7.226;2023-01-19T00:39:47;8.23;;;5.27;;
25497;SDS011;13406;53.380;7.226;2023-01-19T00:42:12;5.40;;;4.60;;
25497;SDS011;13406;53.380;7.226;2023-01-19T00:44:56;7.63;;;4.50;;
25497;SDS011;13406;53.380;7.226;2023-01-19T00:47:21;5.47;;;4.30;;
25497;SDS011;13406;53.380;7.226;2023-01-19T00:49:47;5.13;;;4.50;;
25497;SDS011;13406;53.380;7.226;2023-01-19T00:52:12;5.53;;;4.20;;
25497;SDS011;13406;53.380;7.226;2023-01-19T00:54:37;6.40;;;4.07;;
25497;SDS011;13406;53.380;7.226;2023-01-19T00:57:02;4.50;;;4.10;;
25497;SDS011;13406;53.380;7.226;2023-01-19T00:59:28;6.43;;;4.57;;
25497;SDS011;13406;53.380;7.226;2023-01-19T01:01:53;4.83;;;4.23;;
25497;SDS011;13406;53.380;7.226;2023-01-19T01:04:18;10.43;;;4.40;;
25497;SDS011;13406;53.380;7.226;2023-01-19T01:06:44;6.67;;;5.07;;
25497;SDS011;13406;53.380;7.226;2023-01-19T01:09:09;5.50;;;4.37;;
25497;SDS011;13406;53.380;7.226;2023-01-19T01:11:38;4.27;;;3.80;;
25497;SDS011;13406;53.380;7.226;2023-01-19T01:14:04;4.83;;;3.27;;
25497;SDS011;13406;53.380;7.226;2023-01-19T01:16:29;6.30;;;3.53;;
25497;SDS011;13406;53.380;7.226;2023-01-19T01:18:54;4.27;;;2.80;;
25497;SDS011;13406;53.380;7.226;2023-01-19T01:21:19;5.90;;;3.80;;
25497;SDS011;13406;53.380;7.226;2023-01-19T01:23:45;6.27;;;3.20;;
25497;SDS011;13406;53.380;7.226;2023-01-19T01:26:10;3.33;;;3.03;;
25497;SDS011;13406;53.380;7.226;2023-01-19T01:28:35;4.67;;;3.00;;
25497;SDS011;13406;53.380;7.226;2023-01-19T01:31:01;3.53;;;2.40;;
25497;SDS011;13406;53.380;7.226;2023-01-19T01:33:26;4.00;;;2.70;;
25497;SDS011;13406;53.380;7.226;2023-01-19T01:35:51;2.90;;;2.50;;
25497;SDS011;13406;53.380;7.226;2023-01-19T01:38:16;7.00;;;3.10;;
25497;SDS011;13406;53.380;7.226;2023-01-19T01:40:42;5.20;;;3.17;;
25497;SDS011;13406;53.380;7.226;2023-01-19T01:43:14;5.70;;;2.47;;
25497;SDS011;13406;53.380;7.226;2023-01-19T01:45:40;6.40;;;3.20;;
25497;SDS011;13406;53.380;7.226;2023-01-19T01:48:09;4.20;;;2.97;;
25497;SDS011;13406;53.380;7.226;2023-01-19T01:50:59;7.17;;;3.43;;
25497;SDS011;13406;53.380;7.226;2023-01-19T01:53:41;3.33;;;2.40;;
25497;SDS011;13406;53.380;7.226;2023-01-19T01:56:08;4.70;;;2.93;;
25497;SDS011;13406;53.380;7.226;2023-01-19T01:58:35;6.97;;;2.53;;
25497;SDS011;13406;53.380;7.226;2023-01-19T02:01:01;5.43;;;2.90;;
25497;SDS011;13406;53.380;7.226;2023-01-19T02:03:45;7.07;;;2.47;;
25497;SDS011;13406;53.380;7.226;2023-01-19T02:06:11;4.53;;;2.47;;
25497;SDS011;13406;53.380;7.226;2023-01-19T02:08:57;3.13;;;2.03;;
25497;SDS011;13406;53.380;7.226;2023-01-19T02:11:42;6.23;;;1.93;;
25497;SDS011;13406;53.380;7.226;2023-01-19T02:14:26;2.20;;;1.60;;
25497;SDS011;13406;53.380;7.226;2023-01-19T02:16:51;2.83;;;1.60;;
25497;SDS011;13406;53.380;7.226;2023-01-19T02:19:20;3.13;;;1.50;;
25497;SDS011;13406;53.380;7.226;2023-01-19T02:24:14;3.70;;;1.20;;
25497;SDS011;13406;53.380;7.226;2023-01-19T02:26:43;1.10;;;1.00;;
25497;SDS011;13406;53.380;7.226;2023-01-19T02:29:11;1.37;;;1.27;;
25497;SDS011;13406;53.380;7.226;2023-01-19T02:31:37;2.70;;;1.70;;
25497;SDS011;13406;53.380;7.226;2023-01-19T02:34:04;3.30;;;1.57;;
25497;SDS011;13406;53.380;7.226;2023-01-19T02:36:33;2.33;;;1.53;;
25497;SDS011;13406;53.380;7.226;2023-01-19T02:38:59;1.67;;;1.43;;
25497;SDS011;13406;53.380;7.226;2023-01-19T02:41:29;1.83;;;1.73;;
25497;SDS011;13406;53.380;7.226;2023-01-19T02:43:55;1.43;;;1.33;;
25497;SDS011;13406;53.380;7.226;2023-01-19T02:46:22;3.00;;;1.60;;
25497;SDS011;13406;53.380;7.226;2023-01-19T02:48:47;3.03;;;1.40;;
25497;SDS011;13406;53.380;7.226;2023-01-19T02:51:13;1.73;;;1.63;;
25497;SDS011;13406;53.380;7.226;2023-01-19T02:58:37;2.80;;;1.90;;
25497;SDS011;13406;53.380;7.226;2023-01-19T03:03:59;4.37;;;2.40;;
25497;SDS011;13406;53.380;7.226;2023-01-19T03:06:31;4.10;;;2.43;;
25497;SDS011;13406;53.380;7.226;2023-01-19T03:11:26;3.07;;;2.13;;
25497;SDS011;13406;53.380;7.226;2023-01-19T03:13:58;2.80;;;2.40;;
25497;SDS011;13406;53.380;7.226;2023-01-19T03:16:29;4.07;;;2.30;;
25497;SDS011;13406;53.380;7.226;2023-01-19T03:19:07;2.73;;;2.53;;
25497;SDS011;13406;53.380;7.226;2023-01-19T03:21:34;2.73;;;2.53;;
25497;SDS011;13406;53.380;7.226;2023-01-19T03:24:01;3.13;;;2.83;;
25497;SDS011;13406;53.380;7.226;2023-01-19T03:26:27;2.70;;;2.20;;
25497;SDS011;13406;53.380;7.226;2023-01-19T03:28:54;3.70;;;2.73;;
25497;SDS011;13406;53.380;7.226;2023-01-19T03:31:21;4.17;;;2.93;;
25497;SDS011;13406;53.380;7.226;2023-01-19T03:33:58;3.20;;;3.00;;
25497;SDS011;13406;53.380;7.226;2023-01-19T03:36:33;5.10;;;3.03;;
25497;SDS011;13406;53.380;7.226;2023-01-19T03:38:59;4.10;;;3.03;;
25497;SDS011;13406;53.380;7.226;2023-01-19T03:41:25;3.83;;;2.77;;
25497;SDS011;13406;53.380;7.226;2023-01-19T03:43:51;4.13;;;3.60;;
25497;SDS011;13406;53.380;7.226;2023-01-19T03:46:18;4.03;;;2.97;;
25497;SDS011;13406;53.380;7.226;2023-01-19T03:48:44;3.90;;;3.57;;
25497;SDS011;13406;53.380;7.226;2023-01-19T03:51:10;4.70;;;3.53;;
25497;SDS011;13406;53.380;7.226;2023-01-19T03:53:36;2.97;;;2.77;;
25497;SDS011;13406;53.380;7.226;2023-01-19T03:56:01;2.97;;;2.77;;
25497;SDS011;13406;53.380;7.226;2023-01-19T03:58:26;5.60;;;3.40;;
25497;SDS011;13406;53.380;7.226;2023-01-19T04:00:52;3.43;;;3.13;;
25497;SDS011;13406;53.380;7.226;2023-01-19T04:03:17;2.60;;;2.40;;
25497;SDS011;13406;53.380;7.226;2023-01-19T04:05:46;3.23;;;2.90;;
25497;SDS011;13406;53.380;7.226;2023-01-19T04:08:12;3.20;;;2.90;;
25497;SDS011;13406;53.380;7.226;2023-01-19T04:10:37;3.07;;;2.77;;
25497;SDS011;13406;53.380;7.226;2023-01-19T04:13:03;10.53;;;3.77;;
25497;SDS011;13406;53.380;7.226;2023-01-19T04:15:29;2.67;;;2.47;;
25497;SDS011;13406;53.380;7.226;2023-01-19T04:17:57;3.57;;;3.27;;
25497;SDS011;13406;53.380;7.226;2023-01-19T04:20:23;3.67;;;3.30;;
25497;SDS011;13406;53.380;7.226;2023-01-19T04:22:50;2.90;;;2.70;;
25497;SDS011;13406;53.380;7.226;2023-01-19T04:25:16;3.00;;;2.80;;
25497;SDS011;13406;53.380;7.226;2023-01-19T04:27:41;3.53;;;3.23;;
25497;SDS011;13406;53.380;7.226;2023-01-19T04:30:07;3.67;;;3.37;;
25497;SDS011;13406;53.380;7.226;2023-01-19T04:32:33;4.43;;;3.83;;
25497;SDS011;13406;53.380;7.226;2023-01-19T04:34:59;5.50;;;3.33;;
25497;SDS011;13406;53.380;7.226;2023-01-19T04:37:24;4.30;;;3.83;;
25497;SDS011;13406;53.380;7.226;2023-01-19T04:39:49;3.80;;;3.50;;
25497;SDS011;13406;53.380;7.226;2023-01-19T04:42:14;3.87;;;3.30;;
25497;SDS011;13406;53.380;7.226;2023-01-19T04:44:40;5.53;;;5.03;;
25497;SDS011;13406;53.380;7.226;2023-01-19T04:47:06;4.87;;;4.13;;
25497;SDS011;13406;53.380;7.226;2023-01-19T04:49:31;5.50;;;5.00;;
25497;SDS011;13406;53.380;7.226;2023-01-19T04:51:56;5.10;;;4.13;;
25497;SDS011;13406;53.380;7.226;2023-01-19T04:54:22;5.23;;;3.80;;
25497;SDS011;13406;53.380;7.226;2023-01-19T04:56:47;4.93;;;4.40;;
25497;SDS011;13406;53.380;7.226;2023-01-19T04:59:12;4.17;;;3.57;;
25497;SDS011;13406;53.380;7.226;2023-01-19T05:01:38;6.53;;;4.60;;
25497;SDS011;13406;53.380;7.226;2023-01-19T05:04:03;6.00;;;4.37;;
25497;SDS011;13406;53.380;7.226;2023-01-19T05:06:31;4.50;;;4.10;;
25497;SDS011;13406;53.380;7.226;2023-01-19T05:08:56;4.47;;;4.17;;
25497;SDS011;13406;53.380;7.226;2023-01-19T05:11:22;4.40;;;4.00;;
25497;SDS011;13406;53.380;7.226;2023-01-19T05:13:47;4.33;;;3.50;;
25497;SDS011;13406;53.380;7.226;2023-01-19T05:16:12;4.50;;;4.10;;
25497;SDS011;13406;53.380;7.226;2023-01-19T05:18:38;3.80;;;3.50;;
25497;SDS011;13406;53.380;7.226;2023-01-19T05:21:03;4.53;;;3.90;;
25497;SDS011;13406;53.380;7.226;2023-01-19T05:23:29;4.93;;;4.43;;
25497;SDS011;13406;53.380;7.226;2023-01-19T05:25:56;5.90;;;4.27;;
25497;SDS011;13406;53.380;7.226;2023-01-19T05:28:25;6.50;;;4.57;;
25497;SDS011;13406;53.380;7.226;2023-01-19T05:30:51;4.60;;;4.20;;
25497;SDS011;13406;53.380;7.226;2023-01-19T05:33:16;4.67;;;4.17;;
25497;SDS011;13406;53.380;7.226;2023-01-19T05:35:41;4.70;;;4.30;;
25497;SDS011;13406;53.380;7.226;2023-01-19T05:38:07;4.93;;;3.90;;
25497;SDS011;13406;53.380;7.226;2023-01-19T05:40:32;5.33;;;4.83;;
25497;SDS011;13406;53.380;7.226;2023-01-19T05:42:57;4.33;;;3.93;;
25497;SDS011;13406;53.380;7.226;2023-01-19T05:45:25;4.90;;;3.97;;
25497;SDS011;13406;53.380;7.226;2023-01-19T05:47:51;4.20;;;3.80;;
25497;SDS011;13406;53.380;7.226;2023-01-19T05:50:17;4.70;;;4.30;;
25497;SDS011;13406;53.380;7.226;2023-01-19T05:52:42;6.67;;;6.03;;
25497;SDS011;13406;53.380;7.226;2023-01-19T05:55:08;5.93;;;5.13;;
25497;SDS011;13406;53.380;7.226;2023-01-19T05:57:33;6.10;;;5.17;;
25497;SDS011;13406;53.380;7.226;2023-01-19T05:59:59;8.47;;;5.37;;
25497;SDS011;13406;53.380;7.226;2023-01-19T06:02:24;8.20;;;7.40;;
25497;SDS011;13406;53.380;7.226;2023-01-19T06:04:52;7.37;;;5.83;;
25497;SDS011;13406;53.380;7.226;2023-01-19T06:07:18;7.37;;;4.60;;
25497;SDS011;13406;53.380;7.226;2023-01-19T06:09:43;6.23;;;4.63;;
25497;SDS011;13406;53.380;7.226;2023-01-19T06:12:08;6.83;;;6.03;;
25497;SDS011;13406;53.380;7.226;2023-01-19T06:14:34;5.43;;;4.90;;
25497;SDS011;13406;53.380;7.226;2023-01-19T06:17:01;5.00;;;4.47;;
25497;SDS011;13406;53.380;7.226;2023-01-19T06:19:26;6.90;;;5.50;;
25497;SDS011;13406;53.380;7.226;2023-01-19T06:21:51;8.40;;;5.50;;
25497;SDS011;13406;53.380;7.226;2023-01-19T06:24:16;8.17;;;6.20;;
25497;SDS011;13406;53.380;7.226;2023-01-19T06:26:42;5.67;;;5.10;;
25497;SDS011;13406;53.380;7.226;2023-01-19T06:29:08;6.73;;;5.57;;
25497;SDS011;13406;53.380;7.226;2023-01-19T06:31:33;6.27;;;5.67;;
25497;SDS011;13406;53.380;7.226;2023-01-19T06:33:59;5.70;;;5.07;;
25497;SDS011;13406;53.380;7.226;2023-01-19T06:36:25;6.97;;;5.20;;
25497;SDS011;13406;53.380;7.226;2023-01-19T06:38:50;6.00;;;5.40;;
25497;SDS011;13406;53.380;7.226;2023-01-19T06:41:15;5.90;;;5.30;;
25497;SDS011;13406;53.380;7.226;2023-01-19T06:43:41;5.83;;;4.70;;
25497;SDS011;13406;53.380;7.226;2023-01-19T06:46:06;8.37;;;5.73;;
25497;SDS011;13406;53.380;7.226;2023-01-19T06:48:31;5.37;;;4.87;;
25497;SDS011;13406;53.380;7.226;2023-01-19T06:50:57;6.47;;;5.23;;
25497;SDS011;13406;53.380;7.226;2023-01-19T06:53:22;6.37;;;5.50;;
25497;SDS011;13406;53.380;7.226;2023-01-19T06:55:47;7.13;;;5.20;;
25497;SDS011;13406;53.380;7.226;2023-01-19T06:58:13;5.97;;;5.33;;
25497;SDS011;13406;53.380;7.226;2023-01-19T07:00:38;5.43;;;4.70;;
25497;SDS011;13406;53.380;7.226;2023-01-19T07:03:06;6.03;;;4.90;;
25497;SDS011;13406;53.380;7.226;2023-01-19T07:05:33;6.10;;;5.00;;
25497;SDS011;13406;53.380;7.226;2023-01-19T07:07:58;5.83;;;5.23;;
25497;SDS011;13406;53.380;7.226;2023-01-19T07:10:23;10.43;;;6.10;;
25497;SDS011;13406;53.380;7.226;2023-01-19T07:12:49;7.00;;;5.20;;
25497;SDS011;13406;53.380;7.226;2023-01-19T07:15:15;5.20;;;4.70;;
25497;SDS011;13406;53.380;7.226;2023-01-19T07:17:42;5.47;;;4.77;;
25497;SDS011;13406;53.380;7.226;2023-01-19T07:20:08;4.20;;;3.80;;
25497;SDS011;13406;53.380;7.226;2023-01-19T07:22:35;4.73;;;3.70;;
25497;SDS011;13406;53.380;7.226;2023-01-19T07:25:00;4.87;;;3.40;;
25497;SDS011;13406;53.380;7.226;2023-01-19T07:27:26;4.80;;;3.00;;
25497;SDS011;13406;53.380;7.226;2023-01-19T07:29:52;3.43;;;2.40;;
25497;SDS011;13406;53.380;7.226;2023-01-19T07:32:17;2.90;;;2.00;;
25497;SDS011;13406;53.380;7.226;2023-01-19T07:34:42;4.40;;;2.60;;
25497;SDS011;13406;53.380;7.226;2023-01-19T07:37:07;4.70;;;1.80;;
25497;SDS011;13406;53.380;7.226;2023-01-19T07:39:33;3.87;;;1.70;;
25497;SDS011;13406;53.380;7.226;2023-01-19T07:42:00;1.90;;;1.20;;
25497;SDS011;13406;53.380;7.226;2023-01-19T07:44:25;2.83;;;1.20;;
25497;SDS011;13406;53.380;7.226;2023-01-19T07:46:51;5.27;;;1.20;;
25497;SDS011;13406;53.380;7.226;2023-01-19T07:49:17;5.97;;;1.40;;
25497;SDS011;13406;53.380;7.226;2023-01-19T07:51:42;5.27;;;1.20;;
25497;SDS011;13406;53.380;7.226;2023-01-19T07:54:07;2.30;;;1.23;;
25497;SDS011;13406;53.380;7.226;2023-01-19T07:56:33;1.43;;;1.03;;
25497;SDS011;13406;53.380;7.226;2023-01-19T07:58:58;7.90;;;1.37;;
25497;SDS011;13406;53.380;7.226;2023-01-19T08:01:24;4.30;;;1.40;;
25497;SDS011;13406;53.380;7.226;2023-01-19T08:03:49;2.53;;;1.10;;
25497;SDS011;13406;53.380;7.226;2023-01-19T08:06:18;3.13;;;1.00;;
25497;SDS011;13406;53.380;7.226;2023-01-19T08:08:44;12.33;;;1.43;;
25497;SDS011;13406;53.380;7.226;2023-01-19T08:11:09;6.30;;;1.43;;
25497;SDS011;13406;53.380;7.226;2023-01-19T08:13:35;5.37;;;1.60;;
25497;SDS011;13406;53.380;7.226;2023-01-19T08:16:00;5.73;;;1.50;;
25497;SDS011;13406;53.380;7.226;2023-01-19T08:18:34;4.00;;;1.43;;
25497;SDS011;13406;53.380;7.226;2023-01-19T08:21:00;6.60;;;1.30;;
25497;SDS011;13406;53.380;7.226;2023-01-19T08:23:25;9.10;;;1.70;;
25497;SDS011;13406;53.380;7.226;2023-01-19T08:25:52;11.93;;;1.80;;
25497;SDS011;13406;53.380;7.226;2023-01-19T08:28:17;5.90;;;1.70;;
25497;SDS011;13406;53.380;7.226;2023-01-19T08:30:43;5.10;;;1.03;;
25497;SDS011;13406;53.380;7.226;2023-01-19T08:33:09;11.33;;;1.83;;
25497;SDS011;13406;53.380;7.226;2023-01-19T08:35:41;10.83;;;1.90;;
25497;SDS011;13406;53.380;7.226;2023-01-19T08:38:07;5.57;;;1.27;;
25497;SDS011;13406;53.380;7.226;2023-01-19T08:40:34;8.97;;;2.03;;
25497;SDS011;13406;53.380;7.226;2023-01-19T08:43:00;9.87;;;1.80;;
25497;SDS011;13406;53.380;7.226;2023-01-19T08:45:30;17.30;;;2.03;;
25497;SDS011;13406;53.380;7.226;2023-01-19T08:47:55;20.03;;;4.33;;
25497;SDS011;13406;53.380;7.226;2023-01-19T08:50:25;15.37;;;2.07;;
25497;SDS011;13406;53.380;7.226;2023-01-19T08:52:50;11.90;;;1.73;;
25497;SDS011;13406;53.380;7.226;2023-01-19T08:55:16;10.07;;;2.23;;
25497;SDS011;13406;53.380;7.226;2023-01-19T08:57:41;12.63;;;2.20;;
25497;SDS011;13406;53.380;7.226;2023-01-19T09:00:09;9.60;;;2.37;;
25497;SDS011;13406;53.380;7.226;2023-01-19T09:02:35;12.40;;;2.27;;
25497;SDS011;13406;53.380;7.226;2023-01-19T09:05:01;14.00;;;1.87;;
25497;SDS011;13406;53.380;7.226;2023-01-19T09:07:26;12.77;;;1.93;;
25497;SDS011;13406;53.380;7.226;2023-01-19T09:09:52;11.43;;;2.07;;
25497;SDS011;13406;53.380;7.226;2023-01-19T09:12:18;6.13;;;1.60;;
25497;SDS011;13406;53.380;7.226;2023-01-19T09:14:44;8.30;;;1.80;;
25497;SDS011;13406;53.380;7.226;2023-01-19T09:17:09;10.60;;;2.20;;
25497;SDS011;13406;53.380;7.226;2023-01-19T09:19:34;10.13;;;2.17;;
25497;SDS011;13406;53.380;7.226;2023-01-19T09:22:00;13.50;;;2.13;;
25497;SDS011;13406;53.380;7.226;2023-01-19T09:24:25;5.53;;;1.80;;
25497;SDS011;13406;53.380;7.226;2023-01-19T09:26:50;4.57;;;1.27;;
25497;SDS011;13406;53.380;7.226;2023-01-19T09:29:19;10.00;;;1.60;;
25497;SDS011;13406;53.380;7.226;2023-01-19T09:31:44;5.93;;;2.13;;
25497;SDS011;13406;53.380;7.226;2023-01-19T09:34:09;5.30;;;1.13;;
25497;SDS011;13406;53.380;7.226;2023-01-19T09:36:36;5.77;;;1.30;;
25497;SDS011;13406;53.380;7.226;2023-01-19T09:39:03;6.60;;;1.77;;
25497;SDS011;13406;53.380;7.226;2023-01-19T09:41:32;6.80;;;2.73;;
25497;SDS011;13406;53.380;7.226;2023-01-19T09:43:59;5.90;;;1.70;;
25497;SDS011;13406;53.380;7.226;2023-01-19T09:46:36;9.67;;;1.70;;
25497;SDS011;13406;53.380;7.226;2023-01-19T09:49:06;8.20;;;1.47;;
25497;SDS011;13406;53.380;7.226;2023-01-19T09:51:36;8.77;;;1.57;;
25497;SDS011;13406;53.380;7.226;2023-01-19T09:56:28;6.23;;;1.37;;
25497;SDS011;13406;53.380;7.226;2023-01-19T09:59:16;6.70;;;1.23;;
25497;SDS011;13406;53.380;7.226;2023-01-19T10:06:49;11.20;;;2.00;;
25497;SDS011;13406;53.380;7.226;2023-01-19T10:09:23;6.63;;;2.27;;
25497;SDS011;13406;53.380;7.226;2023-01-19T10:11:56;7.73;;;1.80;;
25497;SDS011;13406;53.380;7.226;2023-01-19T10:17:11;12.93;;;2.37;;
25497;SDS011;13406;53.380;7.226;2023-01-19T10:19:42;10.27;;;1.93;;
25497;SDS011;13406;53.380;7.226;2023-01-19T10:22:18;14.40;;;2.40;;
25497;SDS011;13406;53.380;7.226;2023-01-19T10:24:44;10.37;;;2.17;;
25497;SDS011;13406;53.380;7.226;2023-01-19T10:27:17;9.97;;;2.67;;
25497;SDS011;13406;53.380;7.226;2023-01-19T10:29:43;10.37;;;1.90;;
25497;SDS011;13406;53.380;7.226;2023-01-19T10:34:40;12.33;;;2.73;;
25497;SDS011;13406;53.380;7.226;2023-01-19T10:37:24;7.40;;;1.90;;
25497;SDS011;13406;53.380;7.226;2023-01-19T10:39:56;14.30;;;2.60;;
25497;SDS011;13406;53.380;7.226;2023-01-19T10:42:22;13.43;;;2.17;;
25497;SDS011;13406;53.380;7.226;2023-01-19T10:44:51;11.00;;;2.43;;
25497;SDS011;13406;53.380;7.226;2023-01-19T10:47:17;4.83;;;1.10;;
25497;SDS011;13406;53.380;7.226;2023-01-19T10:49:43;10.17;;;2.63;;
25497;SDS011;13406;53.380;7.226;2023-01-19T10:52:51;7.53;;;1.77;;
25497;SDS011;13406;53.380;7.226;2023-01-19T10:54:57;9.33;;;2.67;;
25497;SDS011;13406;53.380;7.226;2023-01-19T10:57:31;9.20;;;2.20;;
25497;SDS011;13406;53.380;7.226;2023-01-19T10:59:57;15.20;;;2.40;;
25497;SDS011;13406;53.380;7.226;2023-01-19T11:04:51;8.53;;;2.40;;
25497;SDS011;13406;53.380;7.226;2023-01-19T11:07:21;14.03;;;2.40;;
25497;SDS011;13406;53.380;7.226;2023-01-19T11:09:47;11.17;;;1.70;;
25497;SDS011;13406;53.380;7.226;2023-01-19T11:12:19;18.30;;;2.53;;
25497;SDS011;13406;53.380;7.226;2023-01-19T11:14:45;6.43;;;1.83;;
25497;SDS011;13406;53.380;7.226;2023-01-19T11:17:18;8.70;;;1.33;;
25497;SDS011;13406;53.380;7.226;2023-01-19T11:19:51;12.53;;;2.10;;
25497;SDS011;13406;53.380;7.226;2023-01-19T11:22:17;9.67;;;2.07;;
25497;SDS011;13406;53.380;7.226;2023-01-19T11:24:46;8.27;;;1.90;;
25497;SDS011;13406;53.380;7.226;2023-01-19T11:27:14;9.67;;;2.17;;
25497;SDS011;13406;53.380;7.226;2023-01-19T11:32:21;6.83;;;1.97;;
25497;SDS011;13406;53.380;7.226;2023-01-19T11:34:46;6.53;;;1.73;;
25497;SDS011;13406;53.380;7.226;2023-01-19T11:39:50;6.63;;;1.77;;
25497;SDS011;13406;53.380;7.226;2023-01-19T11:42:15;3.97;;;1.27;;
25497;SDS011;13406;53.380;7.226;2023-01-19T11:44:44;6.00;;;1.80;;
25497;SDS011;13406;53.380;7.226;2023-01-19T11:47:11;10.60;;;1.50;;
25497;SDS011;13406;53.380;7.226;2023-01-19T11:49:46;11.13;;;1.70;;
25497;SDS011;13406;53.380;7.226;2023-01-19T11:54:56;4.60;;;1.23;;
25497;SDS011;13406;53.380;7.226;2023-01-19T11:57:23;4.00;;;1.40;;
25497;SDS011;13406;53.380;7.226;2023-01-19T11:59:49;5.53;;;1.60;;
25497;SDS011;13406;53.380;7.226;2023-01-19T12:02:28;12.60;;;2.20;;
25497;SDS011;13406;53.380;7.226;2023-01-19T12:04:55;6.57;;;2.33;;
25497;SDS011;13406;53.380;7.226;2023-01-19T12:07:25;5.97;;;1.20;;
25497;SDS011;13406;53.380;7.226;2023-01-19T12:09:54;5.60;;;1.53;;
25497;SDS011;13406;53.380;7.226;2023-01-19T12:17:25;6.57;;;1.30;;
25497;SDS011;13406;53.380;7.226;2023-01-19T12:19:53;4.70;;;1.30;;
25497;SDS011;13406;53.380;7.226;2023-01-19T12:22:19;7.57;;;1.27;;
25497;SDS011;13406;53.380;7.226;2023-01-19T12:24:47;10.70;;;1.47;;
25497;SDS011;13406;53.380;7.226;2023-01-19T12:27:29;4.73;;;1.70;;
25497;SDS011;13406;53.380;7.226;2023-01-19T12:30:00;7.83;;;1.37;;
25497;SDS011;13406;53.380;7.226;2023-01-19T12:32:31;5.43;;;1.43;;
25497;SDS011;13406;53.380;7.226;2023-01-19T12:34:57;7.57;;;1.47;;
25497;SDS011;13406;53.380;7.226;2023-01-19T12:37:41;3.00;;;1.40;;
25497;SDS011;13406;53.380;7.226;2023-01-19T12:40:21;3.53;;;1.27;;
25497;SDS011;13406;53.380;7.226;2023-01-19T12:42:55;4.77;;;1.50;;
25497;SDS011;13406;53.380;7.226;2023-01-19T12:45:24;10.37;;;1.30;;
25497;SDS011;13406;53.380;7.226;2023-01-19T12:47:53;6.40;;;1.70;;
25497;SDS011;13406;53.380;7.226;2023-01-19T12:50:19;4.80;;;1.40;;
25497;SDS011;13406;53.380;7.226;2023-01-19T12:52:57;6.43;;;1.33;;
25497;SDS011;13406;53.380;7.226;2023-01-19T12:55:25;7.87;;;1.43;;
25497;SDS011;13406;53.380;7.226;2023-01-19T13:02:58;9.17;;;1.57;;
25497;SDS011;13406;53.380;7.226;2023-01-19T13:15:54;5.63;;;1.20;;
25497;SDS011;13406;53.380;7.226;2023-01-19T13:25:38;5.97;;;1.53;;
25497;SDS011;13406;53.380;7.226;2023-01-19T13:28:08;3.80;;;1.20;;
25497;SDS011;13406;53.380;7.226;2023-01-19T13:30:34;24.37;;;3.50;;
25497;SDS011;13406;53.380;7.226;2023-01-19T13:33:03;3.87;;;1.10;;
25497;SDS011;13406;53.380;7.226;2023-01-19T13:35:29;3.63;;;1.20;;
25497;SDS011;13406;53.380;7.226;2023-01-19T13:37:54;3.43;;;1.20;;
25497;SDS011;13406;53.380;7.226;2023-01-19T13:40:22;3.80;;;0.83;;
25497;SDS011;13406;53.380;7.226;2023-01-19T13:42:47;3.40;;;1.10;;
25497;SDS011;13406;53.380;7.226;2023-01-19T13:45:23;4.17;;;1.07;;
25497;SDS011;13406;53.380;7.226;2023-01-19T13:47:50;2.77;;;0.90;;
25497;SDS011;13406;53.380;7.226;2023-01-19T13:50:26;2.33;;;1.13;;
25497;SDS011;13406;53.380;7.226;2023-01-19T13:52:52;3.67;;;1.10;;
25497;SDS011;13406;53.380;7.226;2023-01-19T13:55:20;5.20;;;1.00;;
25497;SDS011;13406;53.380;7.226;2023-01-19T13:57:48;3.90;;;0.80;;
25497;SDS011;13406;53.380;7.226;2023-01-19T14:00:15;3.67;;;0.70;;
25497;SDS011;13406;53.380;7.226;2023-01-19T14:02:41;5.67;;;1.10;;
25497;SDS011;13406;53.380;7.226;2023-01-19T14:05:14;1.57;;;0.70;;
25497;SDS011;13406;53.380;7.226;2023-01-19T14:07:40;2.47;;;0.90;;
25497;SDS011;13406;53.380;7.226;2023-01-19T14:10:06;2.97;;;0.90;;
25497;SDS011;13406;53.380;7.226;2023-01-19T14:12:33;5.47;;;1.53;;
25497;SDS011;13406;53.380;7.226;2023-01-19T14:14:59;3.10;;;1.50;;
25497;SDS011;13406;53.380;7.226;2023-01-19T14:17:28;3.60;;;0.80;;
25497;SDS011;13406;53.380;7.226;2023-01-19T14:19:54;5.73;;;1.40;;
25497;SDS011;13406;53.380;7.226;2023-01-19T14:22:20;2.77;;;1.00;;
25497;SDS011;13406;53.380;7.226;2023-01-19T14:24:45;1.67;;;0.80;;
25497;SDS011;13406;53.380;7.226;2023-01-19T14:27:19;4.03;;;1.00;;
25497;SDS011;13406;53.380;7.226;2023-01-19T14:29:45;3.50;;;1.40;;
25497;SDS011;13406;53.380;7.226;2023-01-19T14:34:39;5.40;;;1.27;;
25497;SDS011;13406;53.380;7.226;2023-01-19T14:42:20;5.50;;;1.67;;
25497;SDS011;13406;53.380;7.226;2023-01-19T14:44:47;2.77;;;1.00;;
25497;SDS011;13406;53.380;7.226;2023-01-19T14:47:51;5.73;;;1.20;;
25497;SDS011;13406;53.380;7.226;2023-01-19T14:52:38;4.10;;;1.50;;
25497;SDS011;13406;53.380;7.226;2023-01-19T14:55:06;3.80;;;1.43;;
25497;SDS011;13406;53.380;7.226;2023-01-19T14:57:32;4.10;;;1.27;;
25497;SDS011;13406;53.380;7.226;2023-01-19T14:59:58;4.80;;;1.00;;
25497;SDS011;13406;53.380;7.226;2023-01-19T15:02:23;4.17;;;1.10;;
25497;SDS011;13406;53.380;7.226;2023-01-19T15:04:48;7.90;;;0.93;;
25497;SDS011;13406;53.380;7.226;2023-01-19T15:07:17;4.83;;;1.20;;
25497;SDS011;13406;53.380;7.226;2023-01-19T15:09:44;3.77;;;1.30;;
25497;SDS011;13406;53.380;7.226;2023-01-19T15:12:10;4.63;;;1.10;;
25497;SDS011;13406;53.380;7.226;2023-01-19T15:14:36;4.13;;;1.00;;
25497;SDS011;13406;53.380;7.226;2023-01-19T15:17:01;7.37;;;1.83;;
25497;SDS011;13406;53.380;7.226;2023-01-19T15:19:27;6.00;;;1.50;;
25497;SDS011;13406;53.380;7.226;2023-01-19T15:21:52;8.73;;;1.30;;
25497;SDS011;13406;53.380;7.226;2023-01-19T15:24:17;8.63;;;1.40;;
25497;SDS011;13406;53.380;7.226;2023-01-19T15:26:42;6.87;;;1.27;;
25497;SDS011;13406;53.380;7.226;2023-01-19T15:29:19;8.53;;;2.60;;
25497;SDS011;13406;53.380;7.226;2023-01-19T15:31:45;5.37;;;1.40;;
25497;SDS011;13406;53.380;7.226;2023-01-19T15:34:11;2.30;;;0.80;;
25497;SDS011;13406;53.380;7.226;2023-01-19T15:36:37;4.20;;;1.00;;
25497;SDS011;13406;53.380;7.226;2023-01-19T15:39:02;6.67;;;1.20;;
25497;SDS011;13406;53.380;7.226;2023-01-19T15:41:28;3.70;;;0.80;;
25497;SDS011;13406;53.380;7.226;2023-01-19T15:43:54;1.43;;;0.80;;
25497;SDS011;13406;53.380;7.226;2023-01-19T15:46:19;4.30;;;0.90;;
25497;SDS011;13406;53.380;7.226;2023-01-19T15:48:45;1.93;;;1.00;;
25497;SDS011;13406;53.380;7.226;2023-01-19T15:51:14;9.53;;;1.20;;
25497;SDS011;13406;53.380;7.226;2023-01-19T15:53:40;1.93;;;0.90;;
25497;SDS011;13406;53.380;7.226;2023-01-19T15:56:11;5.00;;;1.33;;
25497;SDS011;13406;53.380;7.226;2023-01-19T15:58:37;1.80;;;0.87;;
25497;SDS011;13406;53.380;7.226;2023-01-19T16:01:02;2.00;;;0.80;;